Aviation Digital Data Service (ADDS)

Output produced by METARs form (1656 UTC 30 October 2020)
found at http://www.aviationweather.gov/metar/data/
 
KABY 301653Z 34009G18KT 10SM CLR 18/09 A3011 RMK AO2 SLP196 T01830094
KABY 301558Z 3016/3112 33012KT P6SM SCT025 
     FM301900 35008KT P6SM SKC